Friday, August 01, 2014
11:58 UTC
  |  Log In   |  Register Free
Airport Search:

New River Valley Airport
(KPSK)

New River Valley Airport Diagram
No Airport Diagram Available

FAA data valid effective July 24, 2014 until September 18, 2014 (unless otherwise noted).

 
 
 
 
 
 
 
 
 
 
 
 
 
 

Current Aviation Weather for New River Valley Airport (KPSK)

The most recent METAR observation for KPSK was updated at: 1835 UTC
METAR Summary (Translated METAR)
KPSK
281835Z AUTO 27011G23KT 10SM BKN042 BKN048 OVC065 24/14 A2991 RMK AO2 T02410136
KBCB
(13.6 nm NE from KPSK)
281835Z AUTO 30007G18KT 250V330 10SM SCT043 SCT049 BKN080 23/15 RMK AO2
TAF Summary (Translated TAF)
KBCB
(13.6 nm NE from KPSK)
010958Z 0110/0206 11003KT 5SM -RA SCT020 OVC035 FM011200 VRB03KT 4SM -RA SCT015 OVC025 FM011500 13003KT 2SM RA BR BKN008 OVC015 FM011900 10006KT 5SM -RA BR SCT007 OVC020 FM012300 09005KT P6SM OVC015
  Airport Weather Conditions for KPSK

 Current Weather at PSK
64° F
Light Rain
East winds at 4.6 mph
PSK NOAA Radar

Pressure: 30.20 in
Humidity: 100%
Wind: East at 4.6 MPH (4 KT)
Dew Point: 64.4°F
Visibility: 3.00 mi


Airport Weather Forecast for KPSK

Translated METAR and TAF for KPSK
Translated METAR for KPSK (1151 UTC 01 August 2014)
found at http://aviationweather.gov/adds/metars/
 
METAR text: KPSK 011135Z AUTO 10004KT 2 1/2SM -RA OVC004 18/18 A3022 RMK AO2 P0001 T01800180
Conditions at: KPSK (DUBLIN/NEW RIV , VA, US) observed 1135 UTC 01 August 2014
Temperature: 18.0°C (64°F)
Dewpoint: 18.0°C (64°F) [RH = 100%]
Pressure (altimeter): 30.22 inches Hg (1023.5 mb)
Winds: from the E (100 degrees) at 5 MPH (4 knots; 2.1 m/s)
Visibility: 2.50 miles (4.02 km)
Ceiling: 400 feet AGL
Clouds: overcast cloud deck at 400 feet AGL
Weather: -RA  (light rain)
Translated TAF for KPSK

There is no translated TAF available for this airport

Find All Airport Services Find A Hotel Find A Rental Car Find A Golf Course Find A Restaurant $100 Hamburger



FBO's on the Field
FBO Company Facility Photos Services Transportation Aviation Fuel Prices: Prices include tax
Catering Weather Repair Courtesy Rental Type 100LL JetA JetA+ MOGAS 8087
 
New River Valley Airport

This FBO has not yet been rated
FS:Avfuel
Last Updated: Jul-02
Login to update fuel prices
SS:
Contact New River Valley AirportMore FBO Information
 
Add another FBO Facility Photos Catering Weather Repair Courtesy Rental Type 100LL JetA JetA+ MOGAS 8087
Services Transportation Aviation Fuel Prices: Prices include tax


GlobalAir.com Airport Resource Center model-print
model-print
model-print
model-print